Map

Track Data

SID SEASON NUMBER BASIN SUBBASIN NAME ISO_TIME NATURE LAT LON WMO_WIND WMO_PRES WMO_AGENCY TRACK_TYPE DIST2LAND LANDFALL IFLAG USA_AGENCY USA_ATCF_ID USA_LAT USA_LON USA_RECORD USA_STATUS USA_WIND USA_PRES USA_SSHS USA_R34_NE USA_R34_SE USA_R34_SW USA_R34_NW USA_R50_NE USA_R50_SE USA_R50_SW USA_R50_NW USA_R64_NE USA_R64_SE USA_R64_SW USA_R64_NW USA_POCI USA_ROCI USA_RMW USA_EYE TOKYO_LAT TOKYO_LON TOKYO_GRADE TOKYO_WIND TOKYO_PRES TOKYO_R50_DIR TOKYO_R50_LONG TOKYO_R50_SHORT TOKYO_R30_DIR TOKYO_R30_LONG TOKYO_R30_SHORT TOKYO_LAND CMA_LAT CMA_LON CMA_CAT CMA_WIND CMA_PRES HKO_LAT HKO_LON HKO_CAT HKO_WIND HKO_PRES NEWDELHI_LAT NEWDELHI_LON NEWDELHI_GRADE NEWDELHI_WIND NEWDELHI_PRES NEWDELHI_CI NEWDELHI_DP NEWDELHI_POCI REUNION_LAT REUNION_LON REUNION_TYPE REUNION_WIND REUNION_PRES REUNION_TNUM REUNION_CI REUNION_RMW REUNION_R34_NE REUNION_R34_SE REUNION_R34_SW REUNION_R34_NW REUNION_R50_NE REUNION_R50_SE REUNION_R50_SW REUNION_R50_NW REUNION_R64_NE REUNION_R64_SE REUNION_R64_SW REUNION_R64_NW BOM_LAT BOM_LON BOM_TYPE BOM_WIND BOM_PRES BOM_TNUM BOM_CI BOM_RMW BOM_R34_NE BOM_R34_SE BOM_R34_SW BOM_R34_NW BOM_R50_NE BOM_R50_SE BOM_R50_SW BOM_R50_NW BOM_R64_NE BOM_R64_SE BOM_R64_SW BOM_R64_NW BOM_ROCI BOM_POCI BOM_EYE BOM_POS_METHOD BOM_PRES_METHOD NADI_LAT NADI_LON NADI_CAT NADI_WIND NADI_PRES WELLINGTON_LAT WELLINGTON_LON WELLINGTON_WIND WELLINGTON_PRES DS824_LAT DS824_LON DS824_STAGE DS824_WIND DS824_PRES TD9636_LAT TD9636_LON TD9636_STAGE TD9636_WIND TD9636_PRES TD9635_LAT TD9635_LON TD9635_WIND TD9635_PRES TD9635_ROCI NEUMANN_LAT NEUMANN_LON NEUMANN_CLASS NEUMANN_WIND NEUMANN_PRES MLC_LAT MLC_LON MLC_CLASS MLC_WIND MLC_PRES USA_GUST BOM_GUST BOM_GUST_PER REUNION_GUST REUNION_GUST_PER USA_SEAHGT USA_SEARAD_NE USA_SEARAD_SE USA_SEARAD_SW USA_SEARAD_NW STORM_SPEED STORM_DIR
1949031S10059 1949 9 SI MM NOT_NAMED 1949-01-30 18:00:00 TS -10.0000 59.2000 main 1068 1064 O________OO___ jtwc_sh SH111949 -10.0000 59.2000 -1 -10.0000 59.2000 TC -10.0000 59.2000 7 6 142
1949031S10059 1949 9 SI MM NOT_NAMED 1949-01-30 21:00:00 TS -10.2432 59.3942 main 1081 1078 P________PP___ SH111949 -10.2250 59.3725 -1 -10.2250 59.3725 TC -10.2797 59.4376 7 7 141
1949031S10059 1949 9 SI MM NOT_NAMED 1949-01-31 00:00:00 TS -10.5258 59.6301 main 1093 1056 O________OP___ jtwc_sh SH111949 -10.5000 59.6000 -1 -10.5000 59.6000 TC -10.5775 59.6902 7 8 140
1949031S10059 1949 9 SI MM NOT_NAMED 1949-01-31 03:00:00 TS -10.8788 59.9376 main 1056 1023 P________PP___ SH111949 -10.8625 59.9201 -1 -10.8625 59.9201 TC -10.9115 59.9727 7 10 140
1949031S10059 1949 9 SI MM NOT_NAMED 1949-01-31 06:00:00 TS -11.3000 60.3000 main 1023 989 O________OO___ jtwc_sh SH111949 -11.3000 60.3000 -1 -11.3000 60.3000 TC 25 -11.3000 60.3000 1 12 141
1949031S10059 1949 9 SI MM NOT_NAMED 1949-01-31 09:00:00 TS -11.7746 60.6840 main 982 945 P________PP___ SH111949 -11.7849 60.6851 -1 -11.7849 60.6851 TC 25 -11.7539 60.6817 1 13 141
1949031S10059 1949 9 SI MM NOT_NAMED 1949-01-31 12:00:00 TS -12.2851 61.1016 main 945 911 O________OP___ jtwc_sh SH111949 -12.3000 61.1000 -1 -12.3000 61.1000 TC 25 -12.2552 61.1048 1 13 140
1949031S10059 1949 9 SI MM NOT_NAMED 1949-01-31 15:00:00 TS -12.7979 61.5502 main 916 888 P________PP___ SH111949 -12.8075 61.5500 -1 -12.8075 61.5500 TC 25 -12.7788 61.5506 1 13 139
1949031S10059 1949 9 SI MM NOT_NAMED 1949-01-31 18:00:00 TS -13.3000 62.0000 main 888 867 O________OO___ jtwc_sh SH111949 -13.3000 62.0000 -1 -13.3000 62.0000 TC 25 -13.3000 62.0000 1 13 139
1949031S10059 1949 9 SI MM NOT_NAMED 1949-01-31 21:00:00 TS -13.7551 62.4062 main 864 854 P________PP___ SH111949 -13.7499 62.4003 -1 -13.7499 62.4003 TC 25 -13.7656 62.4178 1 12 139
1949031S10059 1949 9 SI MM NOT_NAMED 1949-02-01 00:00:00 TS -14.2090 62.8121 main 854 839 O________OP___ jtwc_sh SH111949 -14.2000 62.8000 -1 -14.2000 62.8000 TC 25 -14.2271 62.8364 1 12 139
1949031S10059 1949 9 SI MM NOT_NAMED 1949-02-01 03:00:00 TS -14.6900 63.2490 main 839 838 P________PP___ SH111949 -14.6850 63.2427 -1 -14.6850 63.2427 TC 30 -14.7000 63.2618 1 13 139
1949031S10059 1949 9 SI MM NOT_NAMED 1949-02-01 06:00:00 TS -15.2000 63.7000 main 839 832 O________OO___ jtwc_sh SH111949 -15.2000 63.7000 -1 -15.2000 63.7000 TC 35 -15.2000 63.7000 2 14 140
1949031S10059 1949 9 SI MM NOT_NAMED 1949-02-01 09:00:00 TS -15.7441 64.1514 main 845 834 P________PP___ SH111949 -15.7349 64.1428 -1 -15.7349 64.1428 TC 35 -15.7624 64.1686 2 14 142
1949031S10059 1949 9 SI MM NOT_NAMED 1949-02-01 12:00:00 TS -16.3167 64.6166 main 843 843 O________OP___ jtwc_sh SH111949 -16.3000 64.6000 -1 -16.3000 64.6000 TC 35 -16.3500 64.6498 2 15 142
1949031S10059 1949 9 SI MM NOT_NAMED 1949-02-01 15:00:00 TS -16.9175 65.1104 main 858 852 P________PP___ SH111949 -16.9075 65.1000 -1 -16.9075 65.1000 TC 35 -16.9375 65.1312 2 15 142
1949031S10059 1949 9 SI MM NOT_NAMED 1949-02-01 18:00:00 TS -17.5000 65.6000 main 878 878 O________OO___ jtwc_sh SH111949 -17.5000 65.6000 -1 -17.5000 65.6000 TC 35 -17.5000 65.6000 2 14 141
1949031S10059 1949 9 SI MM NOT_NAMED 1949-02-01 21:00:00 TS -18.0212 66.0590 main 908 905 P________PP___ SH111949 -18.0224 66.0653 -1 -18.0224 66.0653 TC 30 -18.0189 66.0465 2 13 140
1949031S10059 1949 9 SI MM NOT_NAMED 1949-02-02 00:00:00 TS -18.5001 66.4913 main 934 931 O________OP___ jtwc_sh SH111949 -18.5000 66.5000 -1 -18.5000 66.5000 TC 25 -18.5004 66.4740 2 12 139
1949031S10059 1949 9 SI MM NOT_NAMED 1949-02-02 03:00:00 TS -18.9557 66.9012 main 963 963 P________PP___ SH111949 -18.9552 66.9071 -1 -18.9552 66.9071 TC 25 -18.9567 66.8895 2 12 140
1949031S10059 1949 9 SI MM NOT_NAMED 1949-02-02 06:00:00 TS -19.4000 67.3000 main 998 O________OO___ jtwc_sh SH111949 -19.4000 67.3000 -1 -19.4000 67.3000 TC 25 -19.4000 67.3000 7 12 140

About IBTrACS Database

This database is a web-friendly format of International Best Track Archive for Climate Stewardship (IBTrACS), a global best track data archive curated by NOAA dating back to 1842.

Updated: 2021-11-26